createdAt,value
2023-02-26T00:00:15.958Z,100294.03
2023-02-26T00:02:46.244Z,100312.56
2023-02-26T00:05:15.343Z,100295.78
2023-02-26T00:07:44.260Z,100297.09
2023-02-26T00:10:14.635Z,100300.63
2023-02-26T00:12:45.661Z,100300.72
2023-02-26T00:15:15.506Z,100300.56
2023-02-26T00:17:50.306Z,100298.19
2023-02-26T00:20:20.389Z,100303.34
2023-02-26T00:22:49.096Z,100303.59
2023-02-26T00:25:17.252Z,100301.88
2023-02-26T00:27:47.898Z,100304.81
2023-02-26T00:30:16.849Z,100308.84
2023-02-26T00:32:48.148Z,100308.50
2023-02-26T00:35:18.179Z,100311.13
2023-02-26T00:38:01.342Z,100308.69
2023-02-26T00:40:37.142Z,100312.50
2023-02-26T00:43:09.369Z,100311.63
2023-02-26T00:45:41.536Z,100319.22
2023-02-26T00:48:37.107Z,100306.69
2023-02-26T00:51:13.092Z,100322.88
2023-02-26T00:53:48.054Z,100304.19
2023-02-26T00:56:16.475Z,100320.38
2023-02-26T00:58:46.434Z,100313.84
2023-02-26T01:01:14.793Z,100305.81
2023-02-26T01:03:43.403Z,100315.41
2023-02-26T01:06:14.305Z,100314.09
2023-02-26T01:08:51.347Z,100314.09
2023-02-26T01:11:20.470Z,100318.28
2023-02-26T01:13:50.990Z,100312.38
2023-02-26T01:16:25.372Z,100307.75
2023-02-26T01:19:00.609Z,100313.41
2023-02-26T01:21:37.683Z,100318.84
2023-02-26T01:24:11.441Z,100323.97
2023-02-26T01:26:40.653Z,100325.97
2023-02-26T01:29:11.088Z,100322.97
2023-02-26T01:31:44.549Z,100322.69
2023-02-26T01:34:19.374Z,100323.91
2023-02-26T01:36:55.285Z,100333.53
2023-02-26T01:39:31.283Z,100330.66
2023-02-26T01:42:07.255Z,100322.56
2023-02-26T01:44:43.082Z,100333.97
2023-02-26T01:47:20.860Z,100332.78
2023-02-26T01:49:49.528Z,100328.81
2023-02-26T01:53:05.671Z,100332.03
2023-02-26T01:55:33.976Z,100326.59
2023-02-26T01:58:03.547Z,100323.09
2023-02-26T02:00:33.160Z,100322.09
2023-02-26T02:03:01.999Z,100320.88
2023-02-26T02:05:34.314Z,100325.81
2023-02-26T02:08:02.688Z,100331.38
2023-02-26T02:10:31.523Z,100326.94
2023-02-26T02:13:06.920Z,100332.38
2023-02-26T02:15:45.514Z,100333.88
2023-02-26T02:18:22.250Z,100339.88
2023-02-26T02:21:05.815Z,100336.59
2023-02-26T02:23:41.017Z,100344.22
2023-02-26T02:26:39.945Z,100338.22
2023-02-26T02:29:26.132Z,100341.09
2023-02-26T02:32:02.090Z,100342.81
2023-02-26T02:34:38.209Z,100340.50
2023-02-26T02:37:15.587Z,100338.03
2023-02-26T02:39:48.829Z,100344.78
2023-02-26T02:42:26.532Z,100346.09
2023-02-26T02:45:00.179Z,100345.81
2023-02-26T02:47:33.816Z,100351.69
2023-02-26T02:50:09.073Z,100359.53
2023-02-26T02:52:47.378Z,100343.16
2023-02-26T02:55:23.981Z,100353.25
2023-02-26T02:57:57.107Z,100354.88
2023-02-26T03:00:27.061Z,100351.81
2023-02-26T03:03:06.665Z,100362.97
2023-02-26T03:05:34.968Z,100352.28
2023-02-26T03:08:07.771Z,100350.22
2023-02-26T03:10:36.298Z,100349.47
2023-02-26T03:13:05.732Z,100348.34
2023-02-26T03:15:41.278Z,100350.47
2023-02-26T03:18:24.444Z,100357.53
2023-02-26T03:20:59.169Z,100371.50
2023-02-26T03:23:37.964Z,100364.47
2023-02-26T03:26:13.242Z,100368.81
2023-02-26T03:28:50.162Z,100368.53
2023-02-26T03:31:25.469Z,100356.25
2023-02-26T03:34:00.394Z,100366.50
2023-02-26T03:36:34.706Z,100362.09
2023-02-26T03:39:28.288Z,100355.34
2023-02-26T03:42:03.236Z,100369.53
2023-02-26T03:44:43.723Z,100376.41
2023-02-26T03:47:16.239Z,100379.94
2023-02-26T03:49:51.527Z,100382.38
2023-02-26T03:52:23.862Z,100385.63
2023-02-26T03:55:22.524Z,100383.78
2023-02-26T03:58:17.879Z,100387.50
2023-02-26T04:01:08.900Z,100397.53
2023-02-26T04:03:42.937Z,100395.44
2023-02-26T04:06:13.599Z,100401.06
2023-02-26T04:08:43.790Z,100412.41
2023-02-26T04:11:17.637Z,100416.31
2023-02-26T04:13:46.784Z,100408.72
2023-02-26T04:16:15.695Z,100419.22
2023-02-26T04:18:43.781Z,100409.69
2023-02-26T04:21:14.428Z,100417.31
2023-02-26T04:23:42.842Z,100417.97
2023-02-26T04:26:13.442Z,100420.63
2023-02-26T04:28:43.256Z,100431.28
2023-02-26T04:31:11.857Z,100438.63
2023-02-26T04:33:41.503Z,100421.16
2023-02-26T04:36:10.832Z,100423.13
2023-02-26T04:38:40.748Z,100430.31
2023-02-26T04:41:09.267Z,100436.38
2023-02-26T04:43:37.813Z,100434.13
2023-02-26T04:46:20.398Z,100442.25
2023-02-26T04:48:49.016Z,100447.75
2023-02-26T04:51:19.082Z,100443.72
2023-02-26T04:53:48.996Z,100446.91
2023-02-26T04:56:17.408Z,100456.38
2023-02-26T04:58:46.763Z,100454.56
2023-02-26T05:01:20.102Z,100455.91
2023-02-26T05:03:49.898Z,100470.38
2023-02-26T05:06:18.261Z,100475.25
2023-02-26T05:08:48.016Z,100477.31
2023-02-26T05:11:16.289Z,100477.59
2023-02-26T05:13:46.195Z,100479.63
2023-02-26T05:16:14.583Z,100482.09
2023-02-26T05:18:43.422Z,100483.22
2023-02-26T05:21:11.817Z,100487.22
2023-02-26T05:23:40.317Z,100489.47
2023-02-26T05:26:10.200Z,100498.19
2023-02-26T05:28:38.672Z,100487.63
2023-02-26T05:31:07.466Z,100495.28
2023-02-26T05:33:36.723Z,100501.66
2023-02-26T05:36:07.037Z,100507.19
2023-02-26T05:38:35.872Z,100504.84
2023-02-26T05:41:04.440Z,100516.75
2023-02-26T05:43:34.603Z,100513.66
2023-02-26T05:46:02.800Z,100513.28
2023-02-26T05:48:31.221Z,100525.00
2023-02-26T05:50:59.432Z,100524.53
2023-02-26T05:53:27.662Z,100520.03
2023-02-26T05:55:55.836Z,100522.75
2023-02-26T05:58:25.993Z,100526.88
2023-02-26T06:00:55.506Z,100532.03
2023-02-26T06:03:23.814Z,100537.22
2023-02-26T06:05:51.956Z,100535.22
2023-02-26T06:08:20.303Z,100545.91
2023-02-26T06:10:48.688Z,100543.00
2023-02-26T06:13:16.807Z,100540.56
2023-02-26T06:15:44.947Z,100558.47
2023-02-26T06:18:14.431Z,100558.19
2023-02-26T06:20:42.622Z,100557.72
2023-02-26T06:23:11.288Z,100561.47
2023-02-26T06:25:39.963Z,100575.47
2023-02-26T06:28:09.611Z,100580.31
2023-02-26T06:30:38.200Z,100585.13
2023-02-26T06:33:07.833Z,100584.72
2023-02-26T06:35:37.503Z,100587.75
2023-02-26T06:38:05.429Z,100589.06
2023-02-26T06:40:33.904Z,100586.78
2023-02-26T06:43:02.178Z,100599.00
2023-02-26T06:45:30.495Z,100596.38
2023-02-26T06:47:59.974Z,100607.63
2023-02-26T06:50:28.426Z,100615.50
2023-02-26T06:52:58.275Z,100620.75
2023-02-26T06:55:27.558Z,100635.75
2023-02-26T06:57:56.002Z,100632.78
2023-02-26T07:00:26.550Z,100637.28
2023-02-26T07:02:54.828Z,100633.44
2023-02-26T07:05:23.405Z,100637.94
2023-02-26T07:07:51.628Z,100638.00
2023-02-26T07:10:25.008Z,100649.91
2023-02-26T07:12:53.615Z,100652.19
2023-02-26T07:15:21.690Z,100640.94
2023-02-26T07:17:49.902Z,100645.78
2023-02-26T07:20:18.356Z,100654.25
2023-02-26T07:22:47.556Z,100649.09
2023-02-26T07:25:16.381Z,100654.75
2023-02-26T07:27:46.152Z,100663.75
2023-02-26T07:30:15.665Z,100668.94
2023-02-26T07:32:44.343Z,100671.38
2023-02-26T07:35:14.396Z,100679.22
2023-02-26T07:37:42.523Z,100685.69
2023-02-26T07:40:12.131Z,100681.88
2023-02-26T07:42:40.165Z,100690.13
2023-02-26T07:45:11.654Z,100694.91
2023-02-26T07:47:39.889Z,100703.38
2023-02-26T07:50:09.107Z,100701.03
2023-02-26T07:52:37.526Z,100706.38
2023-02-26T07:55:06.547Z,100701.31
2023-02-26T07:57:34.696Z,100705.06
2023-02-26T08:00:04.665Z,100710.31
2023-02-26T08:02:42.038Z,100715.69
2023-02-26T08:05:11.202Z,100718.28
2023-02-26T08:07:39.613Z,100732.06
2023-02-26T08:10:08.409Z,100723.38
2023-02-26T08:12:39.003Z,100723.28
2023-02-26T08:15:08.521Z,100734.38
2023-02-26T08:17:36.971Z,100733.56
2023-02-26T08:20:08.271Z,100724.56
2023-02-26T08:22:36.607Z,100723.97
2023-02-26T08:25:05.113Z,100735.06
2023-02-26T08:27:33.718Z,100730.91
2023-02-26T08:30:01.942Z,100739.28
2023-02-26T08:32:30.396Z,100735.72
2023-02-26T08:34:58.612Z,100737.63
2023-02-26T08:37:28.942Z,100741.03
2023-02-26T08:39:57.591Z,100742.47
2023-02-26T08:42:25.872Z,100737.22
2023-02-26T08:44:54.681Z,100751.34
2023-02-26T08:47:28.817Z,100745.88
2023-02-26T08:49:59.124Z,100741.88
2023-02-26T08:52:30.473Z,100750.34
2023-02-26T08:55:00.016Z,100760.81
2023-02-26T08:57:28.204Z,100768.69
2023-02-26T08:59:56.353Z,100766.41
2023-02-26T09:02:24.938Z,100767.69
2023-02-26T09:04:53.326Z,100769.28
2023-02-26T09:07:22.112Z,100783.47
2023-02-26T09:09:51.854Z,100781.03
2023-02-26T09:12:20.168Z,100775.28
2023-02-26T09:14:50.806Z,100790.59
2023-02-26T09:17:22.547Z,100784.34
2023-02-26T09:19:51.099Z,100776.47
2023-02-26T09:22:20.496Z,100794.16
2023-02-26T09:24:49.210Z,100797.22
2023-02-26T09:27:20.079Z,100810.22
2023-02-26T09:29:48.676Z,100794.19
2023-02-26T09:32:17.175Z,100797.75
2023-02-26T09:34:45.730Z,100806.31
2023-02-26T09:37:14.024Z,100811.81
2023-02-26T09:39:42.676Z,100812.09
2023-02-26T09:42:25.504Z,100816.63
2023-02-26T09:45:00.307Z,100818.34
2023-02-26T09:47:40.272Z,100820.97
2023-02-26T09:50:18.194Z,100818.25
2023-02-26T09:52:50.508Z,100819.31
2023-02-26T09:55:28.002Z,100828.00
2023-02-26T09:58:01.465Z,100814.44
2023-02-26T10:00:37.644Z,100810.50
2023-02-26T10:03:22.769Z,100821.03
2023-02-26T10:06:15.154Z,100821.72
2023-02-26T10:08:52.725Z,100826.97
2023-02-26T10:11:31.533Z,100835.63
2023-02-26T10:14:07.433Z,100831.38
2023-02-26T10:16:41.426Z,100843.38
2023-02-26T10:19:14.201Z,100850.06
2023-02-26T10:21:48.722Z,100850.38
2023-02-26T10:24:22.462Z,100848.44
2023-02-26T10:26:58.834Z,100854.88
2023-02-26T10:29:35.814Z,100860.44
2023-02-26T10:32:20.389Z,100850.75
2023-02-26T10:34:53.868Z,100854.63
2023-02-26T10:37:34.678Z,100861.88
2023-02-26T10:40:10.912Z,100871.13
2023-02-26T10:42:44.414Z,100878.09
2023-02-26T10:45:38.236Z,100869.09
2023-02-26T10:48:19.672Z,100872.56
2023-02-26T10:50:51.452Z,100869.09
2023-02-26T10:53:22.683Z,100879.09
2023-02-26T10:56:06.473Z,100877.84
2023-02-26T10:58:35.005Z,100869.78
2023-02-26T11:01:12.867Z,100861.34
2023-02-26T11:03:44.209Z,100878.38
2023-02-26T11:06:19.773Z,100878.38
2023-02-26T11:08:51.900Z,100871.91
2023-02-26T11:11:51.908Z,100868.69
2023-02-26T11:14:21.925Z,100874.94
2023-02-26T11:16:58.803Z,100875.91
2023-02-26T11:19:31.555Z,100875.66
2023-02-26T11:22:03.498Z,100879.13
2023-02-26T11:24:36.490Z,100880.88
2023-02-26T11:27:08.930Z,100880.16
2023-02-26T11:29:41.334Z,100894.56
2023-02-26T11:32:18.784Z,100887.50
2023-02-26T11:34:49.202Z,100885.78
2023-02-26T11:37:21.021Z,100888.38
2023-02-26T11:39:54.947Z,100894.47
2023-02-26T11:42:23.384Z,100888.75
2023-02-26T11:44:52.801Z,100900.31
2023-02-26T11:47:26.088Z,100895.38
2023-02-26T11:49:57.472Z,100892.63
2023-02-26T11:52:30.766Z,100887.34
2023-02-26T11:55:04.235Z,100887.38
2023-02-26T11:57:34.707Z,100878.41
2023-02-26T12:00:20.575Z,100875.44
2023-02-26T12:02:51.384Z,100877.16
2023-02-26T12:05:20.652Z,100877.16
2023-02-26T12:07:50.687Z,100877.13
2023-02-26T12:10:26.901Z,100882.63
2023-02-26T12:13:11.183Z,100881.38
2023-02-26T12:15:50.863Z,100882.16
2023-02-26T12:18:45.821Z,100880.91
2023-02-26T12:21:30.204Z,100877.41
2023-02-26T12:24:21.145Z,100875.59
2023-02-26T12:27:01.017Z,100886.84
2023-02-26T12:29:56.684Z,100876.91
2023-02-26T12:32:36.067Z,100872.41
2023-02-26T12:35:37.757Z,100870.84
2023-02-26T12:38:17.381Z,100882.50
2023-02-26T12:41:03.159Z,100884.00
2023-02-26T12:43:44.390Z,100876.03
2023-02-26T12:46:23.966Z,100878.06
2023-02-26T12:49:11.257Z,100891.06
2023-02-26T12:51:55.625Z,100884.38
2023-02-26T12:54:44.267Z,100889.09
2023-02-26T12:57:56.996Z,100891.56
2023-02-26T13:00:57.358Z,100895.59
2023-02-26T13:03:43.046Z,100898.34
2023-02-26T13:06:52.276Z,100899.63
2023-02-26T13:09:33.355Z,100896.34
2023-02-26T13:12:17.276Z,100885.88
2023-02-26T13:14:56.166Z,100890.84
2023-02-26T13:17:33.333Z,100893.34
2023-02-26T13:20:05.658Z,100888.09
2023-02-26T13:22:40.672Z,100900.84
2023-02-26T13:25:21.598Z,100890.16
2023-02-26T13:27:52.634Z,100905.13
2023-02-26T13:30:28.254Z,100889.63
2023-02-26T13:32:59.884Z,100893.84
2023-02-26T13:35:34.580Z,100898.59
2023-02-26T13:38:16.348Z,100900.59
2023-02-26T13:40:58.396Z,100901.59
2023-02-26T13:43:39.875Z,100895.38
2023-02-26T13:46:25.114Z,100896.13
2023-02-26T13:49:02.513Z,100901.34
2023-02-26T13:51:36.817Z,100913.34
2023-02-26T13:54:12.564Z,100903.59
2023-02-26T13:56:55.679Z,100908.09
2023-02-26T13:59:36.533Z,100909.84
2023-02-26T14:02:43.028Z,100904.84
2023-02-26T14:05:54.352Z,100913.34
2023-02-26T14:08:28.354Z,100913.53
2023-02-26T14:11:38.229Z,100916.78
2023-02-26T14:14:15.513Z,100921.50
2023-02-26T14:16:47.158Z,100921.69
2023-02-26T14:19:24.727Z,100923.69
2023-02-26T14:21:57.640Z,100920.50
2023-02-26T14:24:37.022Z,100929.75
2023-02-26T14:27:25.002Z,100931.94
2023-02-26T14:30:05.497Z,100933.19
2023-02-26T14:32:34.981Z,100922.28
2023-02-26T14:35:10.321Z,100947.00
2023-02-26T14:37:42.413Z,100940.69
2023-02-26T14:40:18.587Z,100950.44
2023-02-26T14:42:52.438Z,100952.19
2023-02-26T14:45:30.272Z,100953.66
2023-02-26T14:48:03.681Z,100956.88
2023-02-26T14:50:43.529Z,100955.06
2023-02-26T14:53:38.566Z,100946.63
2023-02-26T14:56:13.014Z,100948.69
2023-02-26T14:59:10.028Z,100954.22
2023-02-26T15:01:48.445Z,100948.00
2023-02-26T15:04:35.671Z,100944.25
2023-02-26T15:07:27.534Z,100947.25
2023-02-26T15:10:12.517Z,100951.47
2023-02-26T15:12:55.812Z,100956.94
2023-02-26T15:15:36.247Z,100958.22
2023-02-26T15:18:16.191Z,100951.97
2023-02-26T15:20:53.498Z,100953.66
2023-02-26T15:23:35.485Z,100960.19
2023-02-26T15:26:05.873Z,100963.94
2023-02-26T15:28:38.256Z,100964.94
2023-02-26T15:31:13.591Z,100969.19
2023-02-26T15:33:42.605Z,100969.00
2023-02-26T15:36:17.764Z,100967.25
2023-02-26T15:38:52.301Z,100973.22
2023-02-26T15:41:21.653Z,100967.25
2023-02-26T15:43:53.602Z,100975.22
2023-02-26T15:46:30.069Z,100977.94
2023-02-26T15:49:02.472Z,100988.09
2023-02-26T15:51:31.571Z,100977.38
2023-02-26T15:54:03.261Z,100980.31
2023-02-26T15:56:36.591Z,100983.72
2023-02-26T15:59:09.404Z,100993.72
2023-02-26T16:01:49.638Z,100989.66
2023-02-26T16:04:24.965Z,100981.16
2023-02-26T16:06:57.309Z,100991.09
2023-02-26T16:09:29.150Z,100993.31
2023-02-26T16:12:00.783Z,100990.13
2023-02-26T16:14:35.508Z,100982.63
2023-02-26T16:17:07.647Z,100991.84
2023-02-26T16:19:41.480Z,100987.59
2023-02-26T16:22:22.363Z,100990.19
2023-02-26T16:25:01.591Z,100996.91
2023-02-26T16:27:32.426Z,100987.41
2023-02-26T16:30:03.213Z,100987.38
2023-02-26T16:32:36.608Z,101005.41
2023-02-26T16:35:12.440Z,101002.41
2023-02-26T16:37:45.871Z,101011.09
2023-02-26T16:40:21.306Z,101011.59
2023-02-26T16:42:56.193Z,101014.25
2023-02-26T16:45:46.026Z,101022.63
2023-02-26T16:48:20.400Z,101024.63
2023-02-26T16:50:54.439Z,101024.13
2023-02-26T16:53:25.500Z,101038.09
2023-02-26T16:55:58.099Z,101035.88
2023-02-26T16:58:27.079Z,101038.97
2023-02-26T17:01:08.424Z,101050.31
2023-02-26T17:03:39.361Z,101060.25
2023-02-26T17:06:12.079Z,101049.84
2023-02-26T17:08:49.159Z,101064.69
2023-02-26T17:11:25.240Z,101059.53
2023-02-26T17:14:14.066Z,101061.66
2023-02-26T17:16:42.569Z,101063.09
2023-02-26T17:19:12.310Z,101070.84
2023-02-26T17:21:46.322Z,101071.38
2023-02-26T17:24:18.726Z,101074.91
2023-02-26T17:26:50.136Z,101081.13
2023-02-26T17:29:24.521Z,101081.78
2023-02-26T17:31:53.227Z,101093.72
2023-02-26T17:34:23.599Z,101098.63
2023-02-26T17:36:51.801Z,101100.03
2023-02-26T17:39:19.910Z,101105.94
2023-02-26T17:41:49.261Z,101112.56
2023-02-26T17:44:17.620Z,101122.34
2023-02-26T17:46:45.847Z,101125.63
2023-02-26T17:49:15.515Z,101132.81
2023-02-26T17:51:49.130Z,101128.66
2023-02-26T17:54:18.304Z,101131.53
2023-02-26T17:56:49.628Z,101142.28
2023-02-26T17:59:19.959Z,101147.97
2023-02-26T18:01:49.704Z,101145.00
2023-02-26T18:04:18.462Z,101144.59
2023-02-26T18:06:48.886Z,101151.91
2023-02-26T18:09:17.781Z,101155.66
2023-02-26T18:11:46.740Z,101156.41
2023-02-26T18:14:15.209Z,101155.88
2023-02-26T18:16:45.181Z,101161.69
2023-02-26T18:19:15.503Z,101163.88
2023-02-26T18:21:44.157Z,101167.22
2023-02-26T18:24:13.898Z,101171.75
2023-02-26T18:26:42.133Z,101165.81
2023-02-26T18:29:12.665Z,101170.09
2023-02-26T18:31:41.268Z,101164.78
2023-02-26T18:34:10.298Z,101174.75
2023-02-26T18:36:39.780Z,101173.78
2023-02-26T18:39:10.441Z,101176.25
2023-02-26T18:41:40.868Z,101166.47
2023-02-26T18:44:09.237Z,101181.31
2023-02-26T18:46:42.727Z,101182.06
2023-02-26T18:49:18.101Z,101179.94
2023-02-26T18:51:48.040Z,101189.56
2023-02-26T18:54:16.776Z,101196.63
2023-02-26T18:56:48.632Z,101204.38
2023-02-26T18:59:17.340Z,101200.53
2023-02-26T19:01:46.395Z,101194.16
2023-02-26T19:04:14.948Z,101204.53
2023-02-26T19:06:43.511Z,101210.47
2023-02-26T19:09:12.230Z,101212.25
2023-02-26T19:11:40.512Z,101218.06
2023-02-26T19:14:10.530Z,101218.81
2023-02-26T19:16:41.411Z,101219.97
2023-02-26T19:19:12.003Z,101216.56
2023-02-26T19:21:42.201Z,101215.91
2023-02-26T19:24:12.458Z,101222.31
2023-02-26T19:26:42.178Z,101226.59
2023-02-26T19:29:15.992Z,101231.25
2023-02-26T19:31:45.409Z,101235.06
2023-02-26T19:34:14.046Z,101230.84
2023-02-26T19:36:48.277Z,101236.88
2023-02-26T19:39:18.808Z,101230.72
2023-02-26T19:41:49.024Z,101240.03
2023-02-26T19:44:20.214Z,101243.28
2023-02-26T19:46:48.712Z,101238.81
2023-02-26T19:49:18.344Z,101245.41
2023-02-26T19:51:46.916Z,101244.28
2023-02-26T19:54:15.216Z,101247.25
2023-02-26T19:56:44.444Z,101249.41
2023-02-26T19:59:13.723Z,101251.53
2023-02-26T20:01:43.992Z,101240.44
2023-02-26T20:04:12.261Z,101252.31
2023-02-26T20:06:42.864Z,101250.53
2023-02-26T20:09:12.243Z,101247.97
2023-02-26T20:11:41.264Z,101249.00
2023-02-26T20:14:10.144Z,101255.13
2023-02-26T20:16:38.571Z,101256.34
2023-02-26T20:19:08.649Z,101258.50
2023-02-26T20:21:37.165Z,101256.66
2023-02-26T20:24:06.291Z,101257.66
2023-02-26T20:26:37.258Z,101259.75
2023-02-26T20:29:05.900Z,101258.81
2023-02-26T20:31:34.242Z,101265.56
2023-02-26T20:34:02.683Z,101267.09
2023-02-26T20:36:32.508Z,101271.94
2023-02-26T20:39:05.161Z,101270.56
2023-02-26T20:41:36.399Z,101276.75
2023-02-26T20:44:06.048Z,101281.78
2023-02-26T20:46:35.925Z,101271.63
2023-02-26T20:49:04.762Z,101282.25
2023-02-26T20:51:35.167Z,101284.69
2023-02-26T20:54:04.956Z,101292.91
2023-02-26T20:56:34.856Z,101286.28
2023-02-26T20:59:03.250Z,101288.66
2023-02-26T21:01:35.748Z,101286.38
2023-02-26T21:04:05.472Z,101285.75
2023-02-26T21:06:36.146Z,101282.25
2023-02-26T21:09:09.724Z,101288.47
2023-02-26T21:11:39.887Z,101286.19
2023-02-26T21:14:09.754Z,101287.69
2023-02-26T21:16:40.677Z,101288.38
2023-02-26T21:19:10.668Z,101292.16
2023-02-26T21:21:40.292Z,101291.44
2023-02-26T21:24:09.705Z,101290.38
2023-02-26T21:26:38.061Z,101293.56
2023-02-26T21:29:07.484Z,101297.50
2023-02-26T21:31:35.949Z,101301.47
2023-02-26T21:34:23.596Z,101294.63
2023-02-26T21:36:54.914Z,101300.22
2023-02-26T21:39:23.570Z,101300.09
2023-02-26T21:41:51.742Z,101301.41
2023-02-26T21:44:20.371Z,101298.69
2023-02-26T21:46:48.980Z,101291.88
2023-02-26T21:49:17.366Z,101305.72
2023-02-26T21:51:45.751Z,101305.25
2023-02-26T21:54:15.359Z,101302.22
2023-02-26T21:56:44.949Z,101297.81
2023-02-26T21:59:13.116Z,101306.75
2023-02-26T22:01:42.145Z,101311.00
2023-02-26T22:04:10.573Z,101310.44
2023-02-26T22:06:39.120Z,101311.25
2023-02-26T22:09:08.994Z,101313.25
2023-02-26T22:11:38.538Z,101309.97
2023-02-26T22:14:07.523Z,101306.00
2023-02-26T22:16:35.842Z,101306.31
2023-02-26T22:19:04.545Z,101299.53
2023-02-26T22:21:35.178Z,101299.69
2023-02-26T22:24:05.402Z,101306.34
2023-02-26T22:26:33.707Z,101298.63
2023-02-26T22:29:03.705Z,101296.16
2023-02-26T22:31:32.963Z,101306.63
2023-02-26T22:34:01.523Z,101301.19
2023-02-26T22:36:31.349Z,101304.06
2023-02-26T22:38:59.894Z,101303.47
2023-02-26T22:41:30.021Z,101302.84
2023-02-26T22:43:58.378Z,101302.53
2023-02-26T22:46:29.279Z,101301.97
2023-02-26T22:48:58.267Z,101311.94
2023-02-26T22:51:28.495Z,101310.56
2023-02-26T22:53:57.659Z,101315.13
2023-02-26T22:56:26.698Z,101311.19
2023-02-26T22:58:57.333Z,101314.66
2023-02-26T23:01:25.861Z,101308.16
2023-02-26T23:03:55.708Z,101319.50
2023-02-26T23:06:24.103Z,101316.34
2023-02-26T23:08:52.618Z,101319.97
2023-02-26T23:11:21.323Z,101311.31
2023-02-26T23:13:49.594Z,101317.69
2023-02-26T23:16:17.948Z,101311.78
2023-02-26T23:18:48.012Z,101317.09
2023-02-26T23:21:18.036Z,101316.94
2023-02-26T23:23:46.694Z,101318.47
2023-02-26T23:26:14.843Z,101326.00
2023-02-26T23:28:43.012Z,101314.06
2023-02-26T23:31:11.290Z,101315.88
2023-02-26T23:33:39.616Z,101322.66
2023-02-26T23:36:08.611Z,101323.28
2023-02-26T23:38:38.280Z,101320.25
2023-02-26T23:41:06.626Z,101316.91
2023-02-26T23:43:35.200Z,101314.81
2023-02-26T23:46:03.932Z,101317.22
2023-02-26T23:48:32.120Z,101320.53
2023-02-26T23:51:00.728Z,101320.06
2023-02-26T23:53:29.269Z,101319.88
2023-02-26T23:55:59.542Z,101326.22
2023-02-26T23:58:29.343Z,101319.25
